Time;durP1;ratioP1;P1;durP2;ratioP2;P2;SDS_P1;SDS_P2;PMS_P1;PMS_P2;Temp;Humidity;BMP_temperature;BMP_pressure;BME280_temperature;BME280_humidity;BME280_pressure;Samples;Min_cycle;Max_cycle;Signal;HPM_P1;HPM_P2
2022/07/14 00:00:29;;;;;;;1.50;0.60;;;;;;;15.45;81.31;99420.33;1789812;79;21792;-73
2022/07/14 00:02:55;;;;;;;2.05;0.85;;;;;;;15.48;81.25;99420.97;1763551;79;20933;-73
2022/07/14 00:05:22;;;;;;;1.75;0.70;;;;;;;15.46;81.17;99418.50;1790220;79;21028;-73
2022/07/14 00:07:49;;;;;;;2.58;0.80;;;;;;;15.48;81.17;99410.33;1776575;79;21026;-73
2022/07/14 00:10:15;;;;;;;2.08;0.60;;;;;;;15.46;81.13;99421.98;1777345;79;21075;-72
2022/07/14 00:12:42;;;;;;;1.90;0.70;;;;;;;15.48;81.10;99420.97;1781927;79;21905;-73
2022/07/14 00:15:09;;;;;;;3.45;0.70;;;;;;;15.48;81.06;99426.30;1792078;79;20969;-73
2022/07/14 00:17:38;;;;;;;2.37;0.78;;;;;;;15.47;81.02;99429.46;1785751;79;21429;-73
2022/07/14 00:20:05;;;;;;;3.20;0.95;;;;;;;15.48;80.97;99425.80;1779094;79;20997;-73
2022/07/14 00:22:32;;;;;;;6.35;0.72;;;;;;;15.49;80.91;99429.28;1772499;79;20949;-73
2022/07/14 00:24:59;;;;;;;2.55;0.60;;;;;;;15.50;80.86;99430.43;1773214;79;21840;-73
2022/07/14 00:27:26;;;;;;;2.47;0.90;;;;;;;15.50;80.85;99429.09;1794780;79;21462;-72
2022/07/14 00:29:53;;;;;;;4.65;0.70;;;;;;;15.52;80.79;99435.06;1773953;79;21039;-72
2022/07/14 00:32:19;;;;;;;2.80;0.65;;;;;;;15.51;80.74;99437.91;1772936;79;21422;-73
2022/07/14 00:34:46;;;;;;;4.05;0.80;;;;;;;15.49;80.75;99442.59;1772547;81;20930;-74
2022/07/14 00:37:13;;;;;;;3.55;0.60;;;;;;;15.46;80.81;99437.95;1757946;79;21787;-74
2022/07/14 00:39:54;;;;;;;3.40;0.60;;;;;;;15.48;80.81;99440.43;1783545;79;20885;-74
2022/07/14 00:42:36;;;;;;;2.08;0.60;;;;;;;15.49;80.84;99443.92;1766780;81;20997;-74
2022/07/14 00:45:09;;;;;;;2.42;0.68;;;;;;;15.49;80.82;99450.06;1762669;79;21083;-73
2022/07/14 00:47:38;;;;;;;4.62;0.60;;;;;;;15.52;80.77;99447.05;1758725;81;21552;-73
2022/07/14 00:50:07;;;;;;;8.25;0.70;;;;;;;15.54;80.74;99455.70;1760918;81;22888;-73
2022/07/14 00:52:34;;;;;;;1.92;0.60;;;;;;;15.55;80.71;99449.88;1745499;81;21050;-74
2022/07/14 00:55:00;;;;;;;1.27;0.60;;;;;;;15.60;80.65;99460.81;1755346;81;21049;-76
2022/07/14 00:57:27;;;;;;;1.37;0.70;;;;;;;15.59;80.63;99458.65;1761131;81;20920;-74
2022/07/14 00:59:53;;;;;;;2.60;0.60;;;;;;;15.60;80.57;99463.47;1761628;79;20947;-74
2022/07/14 01:02:20;;;;;;;3.83;0.78;;;;;;;15.58;80.58;99456.17;1759788;80;22050;-75
2022/07/14 01:04:47;;;;;;;4.78;0.80;;;;;;;15.59;80.60;99458.65;1725232;82;20956;-75
2022/07/14 01:07:16;;;;;;;3.87;0.72;;;;;;;15.59;80.57;99459.16;1744574;80;20999;-74
2022/07/14 01:09:43;;;;;;;2.27;0.75;;;;;;;15.59;80.54;99462.64;1754854;80;20932;-74
2022/07/14 01:12:10;;;;;;;2.75;0.80;;;;;;;15.60;80.52;99465.66;1770481;80;20972;-74
2022/07/14 01:14:37;;;;;;;3.35;0.75;;;;;;;15.62;80.53;99469.47;1779147;80;21988;-74
2022/07/14 01:17:06;;;;;;;2.25;0.65;;;;;;;15.62;80.51;99462.81;1758484;80;20928;-74
2022/07/14 01:19:33;;;;;;;4.35;0.93;;;;;;;15.62;80.44;99470.30;1756486;80;21058;-75
2022/07/14 01:22:00;;;;;;;6.92;0.90;;;;;;;15.64;80.42;99470.15;1738727;82;21002;-74
2022/07/14 01:24:27;;;;;;;1.52;0.70;;;;;;;15.65;80.34;99461.98;1748687;82;20986;-74
2022/07/14 01:26:55;;;;;;;5.50;0.90;;;;;;;15.67;80.25;99469.28;1765838;79;21938;-73
2022/07/14 01:29:21;;;;;;;2.83;0.70;;;;;;;15.66;80.26;99466.80;1752112;80;20967;-74
2022/07/14 01:31:48;;;;;;;3.55;0.88;;;;;;;15.68;80.21;99471.44;1785364;79;21391;-74
2022/07/14 01:34:14;;;;;;;3.50;0.72;;;;;;;15.67;80.15;99478.59;1755357;80;21395;-73
2022/07/14 01:36:41;;;;;;;1.15;0.60;;;;;;;15.67;80.11;99470.61;1787992;80;20996;-74
2022/07/14 01:39:09;;;;;;;5.20;0.80;;;;;;;15.68;80.16;99473.59;1770650;80;21055;-74
2022/07/14 01:41:38;;;;;;;1.87;0.80;;;;;;;15.69;80.09;99476.58;1767375;80;21423;-73
2022/07/14 01:44:04;;;;;;;3.08;0.80;;;;;;;15.71;79.99;99476.40;1774507;80;21497;-74
2022/07/14 01:46:31;;;;;;;1.75;0.70;;;;;;;15.70;79.99;99474.24;1759453;81;21037;-74
2022/07/14 01:48:57;;;;;;;1.45;0.70;;;;;;;15.70;79.95;99478.23;1760820;81;21098;-74
2022/07/14 01:51:25;;;;;;;2.35;0.70;;;;;;;15.70;79.88;99481.41;1757616;80;21930;-74
2022/07/14 01:53:53;;;;;;;1.17;0.70;;;;;;;15.71;79.86;99485.22;1771395;80;20960;-74
2022/07/14 01:56:22;;;;;;;6.03;0.88;;;;;;;15.71;79.85;99485.22;1752835;80;21042;-74
2022/07/14 01:58:49;;;;;;;2.92;0.80;;;;;;;15.71;79.81;99485.22;1786091;80;20984;-74
2022/07/14 02:04:02;;;;;;;1.60;0.80;;;;;;;15.72;79.68;99489.53;1752315;80;21938;-73
2022/07/14 02:06:29;;;;;;;4.65;0.95;;;;;;;15.70;79.61;99501.37;1780584;80;21031;-74
2022/07/14 02:08:58;;;;;;;2.90;0.80;;;;;;;15.67;79.53;99493.23;1750596;80;20960;-73
2022/07/14 02:14:12;;;;;;;1.72;0.80;;;;;;;15.67;79.50;99501.73;1786183;78;20987;-73
2022/07/14 02:16:39;;;;;;;5.87;0.78;;;;;;;15.68;79.52;99504.72;1779295;80;21885;-73
2022/07/14 02:19:07;;;;;;;0.98;0.62;;;;;;;15.67;79.55;99504.39;1757188;80;21240;-75
2022/07/14 02:21:34;;;;;;;2.50;0.80;;;;;;;15.68;79.56;99510.04;1773996;80;21107;-74
2022/07/14 02:24:03;;;;;;;2.72;0.98;;;;;;;15.69;79.62;99504.53;1785569;80;21023;-74
2022/07/14 02:26:30;;;;;;;1.40;0.60;;;;;;;15.68;79.58;99504.72;1779326;80;20980;-73
2022/07/14 02:28:58;;;;;;;1.57;0.80;;;;;;;15.68;79.56;99512.70;1764513;80;22536;-73
2022/07/14 02:31:24;;;;;;;0.72;0.70;;;;;;;15.65;79.51;99513.89;1777088;80;20983;-74
2022/07/14 02:33:51;;;;;;;4.58;0.98;;;;;;;15.66;79.50;99514.72;1762204;79;20983;-74
2022/07/14 02:36:19;;;;;;;1.77;0.88;;;;;;;15.63;79.42;99522.56;1764149;79;21394;-74
2022/07/14 02:38:46;;;;;;;1.98;0.90;;;;;;;15.61;79.47;99515.23;1762065;81;21513;-73
2022/07/14 02:41:13;;;;;;;2.90;1.00;;;;;;;15.59;79.52;99519.88;1761858;80;22316;-74
2022/07/14 02:43:41;;;;;;;2.25;0.80;;;;;;;15.60;79.54;99528.69;1761523;80;20916;-73
2022/07/14 02:46:08;;;;;;;7.12;1.00;;;;;;;15.60;79.62;99520.23;1750356;81;21439;-73
2022/07/14 02:48:35;;;;;;;4.30;0.88;;;;;;;15.64;79.63;99521.55;1755786;81;21407;-73
2022/07/14 02:51:08;;;;;;;3.98;0.80;;;;;;;15.67;79.65;99517.70;1742311;81;20984;-73
2022/07/14 02:53:35;;;;;;;2.75;0.85;;;;;;;15.69;79.59;99529.83;1754042;80;21895;-73
2022/07/14 02:56:04;;;;;;;3.90;0.90;;;;;;;15.71;79.50;99534.97;1755543;81;20984;-73
2022/07/14 02:58:34;;;;;;;1.98;0.80;;;;;;;15.71;79.45;99532.31;1752322;80;20949;-74
2022/07/14 03:01:06;;;;;;;2.35;0.93;;;;;;;15.71;79.40;99536.30;1723396;82;20973;-73
2022/07/14 03:03:35;;;;;;;4.58;1.00;;;;;;;15.72;79.39;99540.62;1751527;81;20928;-74
2022/07/14 03:06:11;;;;;;;2.90;0.98;;;;;;;15.72;79.29;99542.78;1755909;81;22593;-75
2022/07/14 03:08:39;;;;;;;3.70;0.85;;;;;;;15.73;79.17;99550.30;1726593;81;21077;-74
2022/07/14 03:11:06;;;;;;;3.25;0.90;;;;;;;15.76;79.09;99555.77;1705340;80;21030;-74
2022/07/14 03:13:35;;;;;;;4.08;0.85;;;;;;;15.77;79.02;99556.91;1738809;81;20956;-73
2022/07/14 03:16:03;;;;;;;1.67;0.95;;;;;;;15.79;78.87;99552.73;1760133;80;20980;-74
2022/07/14 03:18:30;;;;;;;1.12;0.85;;;;;;;15.79;78.79;99562.89;1756097;81;22268;-74
2022/07/14 03:20:57;;;;;;;4.53;0.95;;;;;;;15.79;78.63;99568.21;1755692;81;20940;-74
2022/07/14 03:23:24;;;;;;;1.80;0.90;;;;;;;15.79;78.57;99562.06;1774210;80;20967;-74
2022/07/14 03:25:51;;;;;;;4.47;0.80;;;;;;;15.82;78.55;99567.85;1772706;80;21000;-73
2022/07/14 03:28:18;;;;;;;2.65;0.85;;;;;;;15.82;78.45;99572.34;1750682;80;21098;-73
2022/07/14 03:30:45;;;;;;;5.12;1.00;;;;;;;15.82;78.35;99569.69;1778158;80;21840;-73
2022/07/14 03:33:12;;;;;;;3.10;0.75;;;;;;;15.83;78.29;99568.20;1767467;80;21063;-73
2022/07/14 03:35:39;;;;;;;3.55;0.90;;;;;;;15.85;78.21;99570.69;1768609;80;21066;-73
2022/07/14 03:38:06;;;;;;;1.32;0.72;;;;;;;15.86;78.12;99574.50;1783471;80;20941;-73
2022/07/14 03:40:34;;;;;;;2.77;0.80;;;;;;;15.90;78.09;99582.95;1770595;80;20903;-73
2022/07/14 03:43:02;;;;;;;2.58;0.70;;;;;;;15.91;77.90;99584.62;1751546;80;21873;-73
2022/07/14 03:45:30;;;;;;;4.90;1.00;;;;;;;15.92;77.78;99586.27;1711444;81;21076;-73
2022/07/14 03:47:57;;;;;;;3.67;0.90;;;;;;;15.92;77.77;99591.13;1765509;80;21086;-73
2022/07/14 03:50:24;;;;;;;6.20;1.12;;;;;;;15.95;77.79;99590.77;1776644;80;21141;-73
2022/07/14 03:52:50;;;;;;;2.45;1.00;;;;;;;15.97;77.76;99591.41;1760080;80;21004;-73
2022/07/14 03:55:18;;;;;;;1.57;0.82;;;;;;;16.01;77.74;99596.70;1754099;81;22689;-73
2022/07/14 03:57:44;;;;;;;1.15;0.80;;;;;;;16.06;77.64;99600.19;1754641;81;20908;-73
2022/07/14 04:00:12;;;;;;;4.87;0.70;;;;;;;16.07;77.55;99599.68;1755111;81;21008;-73
2022/07/14 04:02:41;;;;;;;1.12;0.80;;;;;;;16.10;77.47;99599.32;1756089;80;21054;-73
2022/07/14 04:05:08;;;;;;;2.80;0.90;;;;;;;16.14;77.20;99596.65;1768159;80;20979;-73
2022/07/14 04:07:36;;;;;;;2.70;0.80;;;;;;;16.15;77.12;99594.31;1784940;80;20925;-73
2022/07/14 04:10:05;;;;;;;2.58;0.90;;;;;;;16.17;77.08;99593.12;1765668;80;21041;-74
2022/07/14 04:12:33;;;;;;;1.45;0.72;;;;;;;16.21;76.88;99595.77;1768315;80;20996;-73
2022/07/14 04:14:59;;;;;;;5.15;0.95;;;;;;;16.21;76.51;99595.77;1757984;80;20971;-73
2022/07/14 04:17:27;;;;;;;3.37;0.88;;;;;;;16.24;76.55;99598.58;1773774;80;20961;-73
2022/07/14 04:19:54;;;;;;;2.22;0.80;;;;;;;16.25;76.32;99598.39;1774274;80;21928;-73
2022/07/14 04:22:21;;;;;;;0.93;0.65;;;;;;;16.30;76.26;99601.84;1769949;79;20991;-73
2022/07/14 04:24:48;;;;;;;2.22;0.85;;;;;;;16.33;76.21;99603.35;1773554;80;20991;-74
2022/07/14 04:27:15;;;;;;;2.55;1.02;;;;;;;16.36;76.00;99609.14;1754645;81;21146;-74
2022/07/14 04:29:41;;;;;;;2.72;1.10;;;;;;;16.45;75.98;99608.58;1766934;80;20956;-73
2022/07/14 04:32:10;;;;;;;4.50;0.80;;;;;;;16.52;75.74;99607.70;1762916;79;21933;-73
2022/07/14 04:34:37;;;;;;;2.30;1.00;;;;;;;16.59;75.56;99613.95;1782837;80;20921;-73
2022/07/14 04:37:03;;;;;;;1.85;0.70;;;;;;;16.62;74.96;99619.45;1756213;80;20927;-73
2022/07/14 04:39:30;;;;;;;1.02;0.60;;;;;;;16.60;74.29;99617.47;1755984;80;21011;-73
2022/07/14 04:41:57;;;;;;;2.45;0.82;;;;;;;16.62;74.41;99622.12;1754411;80;20928;-73
2022/07/14 04:44:23;;;;;;;2.90;0.93;;;;;;;16.64;74.32;99628.09;1739976;81;21952;-72
2022/07/14 04:46:50;;;;;;;1.92;0.80;;;;;;;16.68;74.04;99628.08;1756976;80;20972;-75
2022/07/14 04:52:03;;;;;;;1.02;0.88;;;;;;;16.67;73.66;99634.39;1759950;80;21510;-72
2022/07/14 04:54:35;;;;;;;11.70;8.40;;;;;;;16.65;73.41;99631.59;1782434;80;20936;-73
2022/07/14 04:57:07;;;;;;;8.15;3.50;;;;;;;16.68;73.59;99638.74;1748417;81;21863;-73
2022/07/14 04:59:40;;;;;;;5.92;3.62;;;;;;;16.73;73.58;99635.56;1753680;80;22837;-73
2022/07/14 05:02:07;;;;;;;4.28;1.35;;;;;;;16.82;73.76;99634.48;1775889;80;21467;-73
2022/07/14 05:04:35;;;;;;;3.35;1.20;;;;;;;16.91;73.59;99637.91;1757495;80;21027;-73
2022/07/14 05:07:03;;;;;;;4.58;1.22;;;;;;;16.97;73.06;99645.17;1763526;80;20988;-73
2022/07/14 05:09:32;;;;;;;16.12;14.60;;;;;;;17.00;72.58;99642.16;1767559;80;21884;-73
2022/07/14 05:12:01;;;;;;;6.85;4.72;;;;;;;17.03;72.37;99645.28;1770736;80;21410;-73
2022/07/14 05:14:33;;;;;;;1.98;0.90;;;;;;;17.06;71.90;99646.25;1750784;80;21028;-73
2022/07/14 05:17:00;;;;;;;3.98;1.10;;;;;;;17.05;71.70;99645.92;1733473;81;21514;-73
2022/07/14 05:19:29;;;;;;;1.75;0.90;;;;;;;17.03;71.63;99650.63;1751536;80;21494;-73
2022/07/14 05:21:56;;;;;;;0.90;0.90;;;;;;;17.06;71.43;99650.76;1763250;80;23685;-74
2022/07/14 05:24:24;;;;;;;4.25;1.45;;;;;;;17.12;71.67;99659.38;1755235;81;21058;-74
2022/07/14 05:26:51;;;;;;;2.15;1.30;;;;;;;17.18;71.27;99664.00;1750335;81;21374;-73
2022/07/14 05:29:17;;;;;;;2.60;1.12;;;;;;;17.24;71.43;99667.27;1765880;80;21431;-74
2022/07/14 05:31:44;;;;;;;3.15;1.20;;;;;;;17.29;70.94;99678.23;1756131;81;20928;-74
2022/07/14 05:34:12;;;;;;;1.90;1.15;;;;;;;17.28;70.08;99669.08;1751733;80;21945;-74
2022/07/14 05:36:39;;;;;;;4.78;1.10;;;;;;;17.33;70.60;99673.35;1755204;80;21024;-74
2022/07/14 05:39:06;;;;;;;2.65;1.00;;;;;;;17.41;70.54;99668.77;1754608;80;20998;-74
2022/07/14 05:41:33;;;;;;;5.17;1.00;;;;;;;17.50;70.36;99664.17;1753966;81;21082;-74
2022/07/14 05:44:00;;;;;;;3.35;1.10;;;;;;;17.60;70.14;99669.23;1754113;80;21120;-74
2022/07/14 05:46:27;;;;;;;2.27;1.15;;;;;;;17.67;69.75;99678.17;1761702;80;21794;-79
2022/07/14 05:48:54;;;;;;;2.05;1.02;;;;;;;17.72;69.36;99674.45;1764828;80;21481;-75
2022/07/14 05:51:22;;;;;;;1.95;1.20;;;;;;;17.73;68.75;99681.45;1756551;80;20959;-74
2022/07/14 05:53:51;;;;;;;3.62;1.30;;;;;;;17.76;68.81;99686.45;1754292;81;20999;-75
2022/07/14 05:56:21;;;;;;;2.75;1.10;;;;;;;17.73;68.10;99686.80;1761538;80;20976;-72
2022/07/14 05:58:49;;;;;;;1.10;1.00;;;;;;;17.70;68.09;99696.02;1775134;80;21787;-73
2022/07/14 06:01:20;;;;;;;1.65;1.20;;;;;;;17.69;68.02;99700.17;1769104;80;20932;-74
2022/07/14 06:03:56;;;;;;;3.25;1.20;;;;;;;17.70;68.00;99696.52;1776776;78;21083;-73
2022/07/14 06:06:18;;;;;;;2.35;1.02;;;;;;;17.73;67.88;99697.48;1750196;80;21069;-75
2022/07/14 06:08:47;;;;;;;3.47;1.15;;;;;;;17.82;68.25;99696.88;1752464;81;20955;-75
2022/07/14 06:11:14;;;;;;;2.08;1.20;;;;;;;17.96;68.15;99700.06;1755242;81;21823;-73
2022/07/14 06:13:41;;;;;;;2.40;1.20;;;;;;;18.10;67.92;99703.21;1753473;81;21000;-73
2022/07/14 06:16:09;;;;;;;5.50;4.75;;;;;;;18.21;67.42;99701.91;1754120;80;21503;-74
2022/07/14 06:18:37;;;;;;;7.33;5.10;;;;;;;18.24;65.85;99703.71;1744407;80;21093;-74
2022/07/14 06:21:08;;;;;;;21.75;19.60;;;;;;;18.28;65.96;99700.14;1739196;81;20962;-74
2022/07/14 06:23:35;;;;;;;3.75;2.10;;;;;;;18.39;66.06;99690.80;1755419;81;21816;-74
2022/07/14 06:26:10;;;;;;;2.42;1.30;;;;;;;18.57;65.86;99691.20;1755827;81;20991;-73
2022/07/14 06:28:37;;;;;;;2.05;0.98;;;;;;;18.69;64.98;99692.89;1756068;79;20984;-74
2022/07/14 06:31:04;;;;;;;15.20;13.32;;;;;;;18.79;64.94;99702.26;1755698;81;20983;-74
2022/07/14 06:33:32;;;;;;;2.27;1.42;;;;;;;18.89;63.85;99704.61;1763275;80;21086;-76
2022/07/14 06:36:00;;;;;;;1.30;0.80;;;;;;;18.93;63.21;99702.40;1755559;80;22667;-74
2022/07/14 06:38:27;;;;;;;2.75;1.00;;;;;;;18.95;62.94;99713.73;1754720;81;20844;-72
2022/07/14 06:40:54;;;;;;;1.05;0.95;;;;;;;18.96;62.66;99711.37;1754689;81;20932;-72
2022/07/14 06:43:22;;;;;;;2.75;0.90;;;;;;;18.97;62.83;99711.17;1765196;80;20980;-71
2022/07/14 06:45:50;;;;;;;4.90;1.00;;;;;;;19.03;63.10;99721.13;1769517;79;21404;-72
2022/07/14 06:48:18;;;;;;;2.60;1.00;;;;;;;19.02;62.44;99724.00;1748188;80;22545;-71
2022/07/14 06:50:45;;;;;;;1.92;0.90;;;;;;;18.99;62.25;99719.01;1758744;80;21578;-72
2022/07/14 06:53:12;;;;;;;3.55;1.02;;;;;;;19.01;62.77;99715.14;1758794;81;21494;-71
2022/07/14 06:55:38;;;;;;;1.00;0.90;;;;;;;19.07;62.77;99727.73;1758060;81;21098;-72
2022/07/14 06:58:05;;;;;;;1.92;1.00;;;;;;;19.08;62.26;99721.36;1759564;79;20948;-72
2022/07/14 07:00:31;;;;;;;5.37;0.90;;;;;;;19.14;62.66;99722.45;1758444;81;21830;-72
2022/07/14 07:02:58;;;;;;;5.60;1.12;;;;;;;19.26;62.41;99732.94;1763776;80;20932;-73
2022/07/14 07:08:10;;;;;;;4.72;0.80;;;;;;;19.43;62.66;99738.34;1749430;81;21467;-71
2022/07/14 07:10:56;;;;;;;3.70;0.90;;;;;;;19.55;62.54;99731.09;1758638;81;20983;-71
2022/07/14 07:13:25;;;;;;;2.52;0.90;;;;;;;19.69;61.58;99735.58;1758977;79;22427;-70
2022/07/14 07:15:52;;;;;;;2.12;0.88;;;;;;;19.76;61.21;99734.25;1756748;81;21470;-72
2022/07/14 07:18:19;;;;;;;4.87;0.90;;;;;;;19.86;61.11;99724.00;1758636;79;21480;-73
2022/07/14 07:20:46;;;;;;;1.25;0.90;;;;;;;19.97;60.67;99726.13;1773799;79;21447;-72
2022/07/14 07:23:12;;;;;;;3.85;0.88;;;;;;;20.11;59.98;99717.13;1758997;81;20991;-77
2022/07/14 07:25:39;;;;;;;1.55;0.70;;;;;;;20.13;60.03;99727.14;1779699;79;21964;-74
2022/07/14 07:28:05;;;;;;;1.20;0.90;;;;;;;20.13;59.25;99727.66;1757476;80;21023;-76
2022/07/14 07:30:32;;;;;;;3.55;1.00;;;;;;;20.15;58.50;99726.94;1780564;79;21019;-73
2022/07/14 07:32:59;;;;;;;2.62;2.10;;;;;;;20.26;57.64;99725.02;1761999;80;21055;-74
2022/07/14 07:35:26;;;;;;;18.27;15.72;;;;;;;20.33;57.79;99732.59;1757433;80;21022;-74
2022/07/14 07:37:52;;;;;;;1.47;0.90;;;;;;;20.39;57.49;99730.97;1757008;81;21822;-71
2022/07/14 07:40:19;;;;;;;3.25;1.00;;;;;;;20.41;57.72;99731.07;1793658;80;21003;-72
2022/07/14 07:42:46;;;;;;;1.40;1.02;;;;;;;20.36;57.58;99725.47;1760591;80;21110;-73
2022/07/14 07:45:13;;;;;;;1.52;0.90;;;;;;;20.30;57.67;99724.44;1757356;81;21010;-72
2022/07/14 07:47:39;;;;;;;5.92;0.90;;;;;;;20.27;58.04;99722.16;1785402;79;21032;-73
2022/07/14 07:50:08;;;;;;;5.20;0.80;;;;;;;20.36;58.16;99730.83;1794262;79;21773;-73
2022/07/14 07:52:35;;;;;;;0.62;0.60;;;;;;;20.53;56.83;99722.78;1741079;82;20924;-72
2022/07/14 07:55:09;;;;;;;6.03;0.70;;;;;;;20.64;56.03;99725.90;1742605;79;21105;-75
2022/07/14 07:57:48;;;;;;;1.85;0.70;;;;;;;20.67;55.95;99725.52;1778599;79;21009;-74
2022/07/14 08:00:16;;;;;;;1.75;0.70;;;;;;;20.77;56.53;99742.05;1741346;82;21084;-75
2022/07/14 08:02:49;;;;;;;2.27;0.80;;;;;;;20.84;56.04;99742.87;1743731;82;21959;-75
2022/07/14 08:05:17;;;;;;;0.60;0.50;;;;;;;20.75;56.18;99748.11;1769479;79;27469;-74
2022/07/14 08:07:44;;;;;;;0.53;0.53;;;;;;;20.71;56.09;99753.58;1789031;79;21040;-73
2022/07/14 08:10:11;;;;;;;1.25;0.62;;;;;;;20.64;55.52;99752.22;1768661;79;21081;-73
2022/07/14 08:12:38;;;;;;;3.85;0.65;;;;;;;20.64;55.81;99753.55;1771439;79;21056;-72
2022/07/14 08:15:06;;;;;;;1.17;0.70;;;;;;;20.64;56.16;99762.13;1762079;79;22841;-74
2022/07/14 08:17:33;;;;;;;1.30;0.60;;;;;;;20.71;56.44;99758.95;1764419;79;21036;-72
2022/07/14 08:20:00;;;;;;;1.57;0.60;;;;;;;20.83;55.88;99762.69;1778264;79;20992;-72
2022/07/14 08:22:27;;;;;;;1.57;0.50;;;;;;;20.95;55.36;99760.26;1759018;79;21494;-70
2022/07/14 08:24:54;;;;;;;1.87;0.70;;;;;;;20.99;55.13;99769.03;1771546;81;21068;-72
2022/07/14 08:27:22;;;;;;;1.40;0.50;;;;;;;21.03;54.41;99763.55;1771418;79;22295;-71
2022/07/14 08:29:49;;;;;;;1.02;0.62;;;;;;;21.03;54.33;99768.92;1771442;81;21643;-71
2022/07/14 08:32:17;;;;;;;1.15;0.78;;;;;;;20.98;53.59;99771.41;1763502;81;21478;-72
2022/07/14 08:34:43;;;;;;;1.10;0.55;;;;;;;20.99;54.30;99769.55;1764995;81;21396;-69
2022/07/14 08:37:11;;;;;;;1.05;0.60;;;;;;;21.04;54.67;99767.92;1762141;81;21016;-69
2022/07/14 08:39:37;;;;;;;0.80;0.60;;;;;;;21.06;54.42;99782.48;1763605;80;21961;-71
2022/07/14 08:42:04;;;;;;;3.10;0.80;;;;;;;21.07;53.41;99778.75;1756288;81;21013;-74
2022/07/14 08:44:32;;;;;;;4.03;1.00;;;;;;;21.06;53.69;99777.93;1769125;79;21038;-72
2022/07/14 08:46:59;;;;;;;0.90;0.60;;;;;;;21.07;53.79;99786.30;1710088;81;21055;-73
2022/07/14 08:49:26;;;;;;;0.82;0.60;;;;;;;21.18;53.41;99784.86;1753075;80;21107;-75
2022/07/14 08:51:53;;;;;;;2.50;0.70;;;;;;;21.33;53.74;99778.83;1732211;81;22428;-75
2022/07/14 08:54:20;;;;;;;0.60;0.60;;;;;;;21.50;52.92;99784.59;1754550;81;21562;-75
2022/07/14 08:56:47;;;;;;;4.33;0.80;;;;;;;21.62;52.73;99777.58;1759852;80;21482;-74
2022/07/14 08:59:13;;;;;;;0.70;0.60;;;;;;;21.80;52.48;99781.46;1756608;81;21586;-73
2022/07/14 09:01:42;;;;;;;3.12;0.68;;;;;;;21.87;52.49;99784.45;1755294;81;21195;-73
2022/07/14 09:04:08;;;;;;;3.27;0.70;;;;;;;21.88;52.14;99783.41;1702445;83;21965;-74
2022/07/14 09:06:52;;;;;;;3.42;0.80;;;;;;;21.89;52.63;99786.93;1736146;82;21046;-73
2022/07/14 09:09:25;;;;;;;1.92;0.70;;;;;;;21.93;52.55;99784.97;1746168;82;21027;-74
2022/07/14 09:12:11;;;;;;;3.27;0.70;;;;;;;22.01;52.20;99777.20;1736458;81;21076;-74
2022/07/14 09:17:25;;;;;;;1.35;0.75;;;;;;;22.39;52.79;99771.95;1747341;80;21761;-74
2022/07/14 09:20:08;;;;;;;1.57;0.70;;;;;;;22.53;51.03;99784.81;1759124;80;21030;-74
2022/07/14 09:22:38;;;;;;;1.75;0.70;;;;;;;22.41;51.00;99782.49;1756368;79;21471;-74
2022/07/14 09:25:12;;;;;;;5.45;0.82;;;;;;;22.37;51.88;99774.00;1770598;80;20979;-74
2022/07/14 09:27:39;;;;;;;1.20;0.65;;;;;;;22.52;52.29;99776.44;1717969;81;21035;-75
2022/07/14 09:30:10;;;;;;;2.20;0.75;;;;;;;22.64;51.92;99782.79;1738975;80;22284;-72
2022/07/14 09:33:00;;;;;;;3.90;0.80;;;;;;;22.73;51.48;99777.47;1764498;80;21599;-72
2022/07/14 09:35:38;;;;;;;4.35;3.15;;;;;;;22.87;51.88;99778.75;1749383;81;21058;-71
2022/07/14 09:38:19;;;;;;;3.90;0.80;;;;;;;23.01;50.68;99779.82;1754725;80;21493;-74
2022/07/14 09:40:49;;;;;;;3.50;0.70;;;;;;;23.00;50.27;99781.39;1765651;80;21061;-74
2022/07/14 09:43:16;;;;;;;3.87;1.10;;;;;;;22.94;50.84;99788.45;1757975;80;21923;-74
2022/07/14 09:45:49;;;;;;;4.33;0.80;;;;;;;22.97;50.98;99781.80;1758749;81;21058;-74
2022/07/14 09:48:17;;;;;;;3.33;0.90;;;;;;;23.00;50.71;99784.91;1770332;80;21079;-74
2022/07/14 09:50:57;;;;;;;1.50;0.68;;;;;;;23.18;51.11;99786.04;1765922;81;21024;-73
2022/07/14 09:53:34;;;;;;;3.20;0.70;;;;;;;23.35;50.02;99794.69;1769360;81;21075;-72
2022/07/14 09:56:04;;;;;;;1.15;0.70;;;;;;;23.46;49.77;99793.19;1771875;80;21510;-72
2022/07/14 09:58:51;;;;;;;2.98;0.60;;;;;;;23.54;50.19;99791.53;1748143;81;21022;-73
2022/07/14 10:01:18;;;;;;;0.80;0.70;;;;;;;23.75;49.54;99794.42;1741136;80;21506;-72
2022/07/14 10:03:47;;;;;;;2.35;0.70;;;;;;;23.93;47.85;99803.04;1741200;82;21043;-72
2022/07/14 10:06:14;;;;;;;2.15;0.88;;;;;;;23.98;47.77;99805.38;1756342;81;21000;-72
2022/07/14 10:08:43;;;;;;;2.47;0.50;;;;;;;23.96;48.06;99813.41;1762414;80;22528;-71
2022/07/14 10:11:13;;;;;;;1.92;0.70;;;;;;;23.92;48.77;99813.00;1744259;81;20913;-73
2022/07/14 10:13:41;;;;;;;1.85;0.40;;;;;;;23.94;49.15;99812.28;1722875;82;21026;-72
2022/07/14 10:16:07;;;;;;;0.60;0.40;;;;;;;24.04;47.40;99810.42;1704298;84;21032;-73
2022/07/14 10:18:34;;;;;;;1.15;0.53;;;;;;;24.09;46.83;99816.48;1704949;84;21017;-73
2022/07/14 10:21:01;;;;;;;1.17;0.50;;;;;;;24.07;45.46;99805.92;1712029;83;22800;-76
2022/07/14 10:23:29;;;;;;;4.75;0.78;;;;;;;23.98;45.54;99813.48;1709532;83;21045;-72
2022/07/14 10:25:58;;;;;;;7.30;0.95;;;;;;;23.86;46.10;99813.91;1737368;82;21070;-73
2022/07/14 10:28:25;;;;;;;5.60;0.60;;;;;;;23.79;46.68;99819.06;1737338;82;21174;-75
2022/07/14 10:31:25;;;;;;;15.88;12.15;;;;;;;23.75;46.99;99821.38;1732137;82;21078;-72
2022/07/14 10:34:21;;;;;;;10.68;9.58;;;;;;;23.78;47.09;99819.58;1718048;81;21934;-74
2022/07/14 10:37:15;;;;;;;17.02;15.28;;;;;;;23.99;47.20;99826.44;1738982;81;20940;-76
2022/07/14 10:39:49;;;;;;;4.58;2.08;;;;;;;24.18;46.70;99825.41;1740965;81;21028;-72
2022/07/14 10:42:34;;;;;;;8.48;6.20;;;;;;;24.35;46.61;99831.61;1736373;81;21653;-73
2022/07/14 10:45:02;;;;;;;4.00;0.70;;;;;;;24.46;47.25;99830.85;1770203;79;21005;-73
2022/07/14 10:47:50;;;;;;;0.88;0.70;;;;;;;24.59;46.52;99834.73;1705537;81;21860;-73
2022/07/14 10:50:25;;;;;;;0.62;0.57;;;;;;;24.66;45.81;99827.38;1699967;82;21125;-72
2022/07/14 10:53:03;;;;;;;3.65;0.70;;;;;;;24.80;45.51;99832.93;1735357;82;21367;-74
2022/07/14 10:55:34;;;;;;;3.05;0.65;;;;;;;24.97;46.04;99822.30;1718184;82;21010;-73
2022/07/14 10:58:09;;;;;;;4.25;0.60;;;;;;;25.20;46.65;99831.06;1732892;80;21054;-72
2022/07/14 11:00:46;;;;;;;3.10;0.50;;;;;;;25.42;45.87;99832.70;1763742;80;22411;-73
2022/07/14 11:03:35;;;;;;;2.08;0.60;;;;;;;25.64;45.21;99831.08;1765857;80;21448;-71
2022/07/14 11:06:08;;;;;;;4.15;0.70;;;;;;;25.74;44.63;99826.47;1746103;80;21023;-72
2022/07/14 11:08:38;;;;;;;0.57;0.50;;;;;;;25.64;44.38;99842.42;1726810;82;21030;-73
2022/07/14 11:11:08;;;;;;;1.30;0.90;;;;;;;25.42;43.60;99835.39;1737522;82;20995;-71
2022/07/14 11:14:03;;;;;;;3.52;0.55;;;;;;;25.11;44.17;99841.37;1729100;82;21889;-71
2022/07/14 11:16:50;;;;;;;;;;;;;;;24.87;44.79;99842.28;1694073;83;21036;-73
2022/07/14 11:19:37;;;;;;;5.08;4.20;;;;;;;24.72;45.97;99840.52;1736847;81;20427;-72
2022/07/14 11:22:18;;;;;;;2.40;1.02;;;;;;;24.87;45.79;99831.47;1725428;82;21006;-70
2022/07/14 11:24:54;;;;;;;3.35;0.80;;;;;;;25.18;45.83;99825.56;1741518;81;20994;-73
2022/07/14 11:27:48;;;;;;;3.08;0.78;;;;;;;25.45;45.06;99830.05;1741763;82;21813;-71
2022/07/14 11:30:28;;;;;;;2.58;0.70;;;;;;;25.47;43.87;99835.51;1712524;81;21061;-73
2022/07/14 11:33:01;;;;;;;1.80;0.70;;;;;;;25.25;43.95;99838.45;1721533;82;21101;-72
2022/07/14 11:38:26;;;;;;;2.50;0.70;;;;;;;25.00;45.75;99831.31;1667070;84;20145;-71
2022/07/14 11:40:53;;;;;;;0.88;0.60;;;;;;;25.14;45.25;99831.14;1633876;86;22499;-75
2022/07/14 11:43:36;;;;;;;10.60;9.60;;;;;;;25.44;45.43;99832.45;1649885;85;22142;-73
2022/07/14 11:46:13;;;;;;;1.90;0.90;;;;;;;25.77;45.48;99830.08;1730734;81;21027;-73
2022/07/14 11:49:00;;;;;;;2.45;0.90;;;;;;;26.06;44.09;99829.67;1718822;83;21024;-73
2022/07/14 11:51:27;;;;;;;1.55;0.80;;;;;;;26.36;44.83;99822.75;1717197;82;21013;-74
2022/07/14 11:54:01;;;;;;;2.95;0.70;;;;;;;26.62;43.46;99824.64;1716784;81;21908;-74
2022/07/14 11:56:29;;;;;;;4.05;1.35;;;;;;;26.56;42.85;99823.73;1714301;83;21036;-72
2022/07/14 11:59:02;;;;;;;4.00;0.90;;;;;;;26.44;43.52;99825.63;1717084;83;21578;-73
2022/07/14 12:01:33;;;;;;;1.60;0.80;;;;;;;26.33;43.24;99833.21;1696641;83;21055;-73